createdAt,value
2023-02-23T00:00:32.105Z,18.83
2023-02-23T00:03:01.508Z,19.13
2023-02-23T00:05:30.050Z,19.53
2023-02-23T00:07:56.935Z,18.43
2023-02-23T00:10:30.450Z,17.87
2023-02-23T00:12:58.703Z,20.10
2023-02-23T00:15:26.910Z,20.73
2023-02-23T00:17:55.709Z,19.27
2023-02-23T00:20:30.010Z,19.70
2023-02-23T00:22:57.574Z,21.13
2023-02-23T00:25:25.202Z,21.20
2023-02-23T00:27:52.500Z,20.00
2023-02-23T00:30:20.385Z,20.13
2023-02-23T00:32:47.557Z,20.83
2023-02-23T00:35:17.684Z,19.83
2023-02-23T00:37:48.301Z,20.97
2023-02-23T00:40:21.412Z,21.63
2023-02-23T00:42:50.040Z,21.03
2023-02-23T00:45:16.992Z,21.10
2023-02-23T00:47:44.910Z,20.37
2023-02-23T00:50:14.861Z,20.33
2023-02-23T00:52:43.481Z,21.63
2023-02-23T00:55:16.038Z,21.23
2023-02-23T00:57:43.195Z,22.10
2023-02-23T01:00:19.734Z,21.40
2023-02-23T01:02:48.780Z,21.73
2023-02-23T01:05:16.688Z,22.27
2023-02-23T01:07:46.858Z,21.43
2023-02-23T01:10:19.860Z,22.47
2023-02-23T01:12:50.940Z,23.23
2023-02-23T01:15:18.779Z,22.27
2023-02-23T01:17:45.574Z,22.97
2023-02-23T01:20:19.625Z,22.53
2023-02-23T01:22:48.470Z,23.03
2023-02-23T01:25:16.439Z,22.27
2023-02-23T01:27:43.805Z,22.03
2023-02-23T01:30:13.116Z,22.37
2023-02-23T01:32:39.793Z,22.50
2023-02-23T01:35:08.518Z,22.67
2023-02-23T01:37:36.432Z,21.97
2023-02-23T01:40:10.667Z,21.57
2023-02-23T01:42:39.148Z,21.93
2023-02-23T01:45:27.120Z,22.57
2023-02-23T01:47:56.583Z,22.67
2023-02-23T01:50:27.518Z,21.97
2023-02-23T01:52:55.405Z,23.47
2023-02-23T01:55:24.277Z,22.03
2023-02-23T01:57:54.534Z,22.70
2023-02-23T02:00:25.698Z,22.67
2023-02-23T02:02:52.718Z,22.47
2023-02-23T02:05:20.152Z,21.77
2023-02-23T02:07:49.314Z,22.03
2023-02-23T02:10:16.516Z,22.00
2023-02-23T02:12:45.580Z,23.07
2023-02-23T02:15:17.213Z,21.37
2023-02-23T02:18:03.200Z,21.83
2023-02-23T02:21:05.011Z,21.00
2023-02-23T02:24:09.559Z,21.33
2023-02-23T02:27:08.518Z,22.07
2023-02-23T02:30:13.017Z,21.80
2023-02-23T02:33:00.433Z,22.60
2023-02-23T02:35:54.494Z,21.87
2023-02-23T02:38:38.041Z,20.53
2023-02-23T02:41:37.642Z,21.27
2023-02-23T02:44:51.999Z,20.30
2023-02-23T02:47:34.534Z,20.93
2023-02-23T02:50:31.382Z,21.47
2023-02-23T02:53:25.846Z,21.53
2023-02-23T02:55:56.036Z,21.47
2023-02-23T02:58:25.571Z,22.70
2023-02-23T03:01:11.819Z,21.23
2023-02-23T03:04:01.081Z,21.03
2023-02-23T03:07:06.941Z,21.47
2023-02-23T03:10:04.199Z,23.23
2023-02-23T03:12:58.262Z,21.67
2023-02-23T03:15:49.931Z,20.50
2023-02-23T03:18:50.168Z,20.90
2023-02-23T03:21:43.852Z,19.97
2023-02-23T03:24:55.313Z,21.20
2023-02-23T03:28:08.061Z,20.63
2023-02-23T03:31:05.529Z,22.63
2023-02-23T03:34:18.712Z,20.60
2023-02-23T03:37:09.785Z,19.97
2023-02-23T03:40:07.009Z,19.83
2023-02-23T03:42:54.688Z,20.73
2023-02-23T03:45:42.975Z,19.87
2023-02-23T03:48:29.172Z,20.30
2023-02-23T03:51:17.822Z,20.03
2023-02-23T03:54:22.741Z,20.27
2023-02-23T03:57:09.594Z,20.53
2023-02-23T04:00:04.390Z,19.43
2023-02-23T04:02:50.558Z,20.37
2023-02-23T04:05:37.028Z,20.60
2023-02-23T04:08:25.100Z,20.40
2023-02-23T04:11:14.772Z,20.07
2023-02-23T04:13:42.557Z,21.30
2023-02-23T04:16:09.800Z,21.67
2023-02-23T04:18:38.431Z,22.37
2023-02-23T04:21:05.863Z,21.27
2023-02-23T04:23:32.451Z,20.90
2023-02-23T04:25:59.099Z,20.40
2023-02-23T04:28:28.290Z,21.17
2023-02-23T04:30:54.786Z,21.53
2023-02-23T04:33:22.157Z,21.97
2023-02-23T04:35:48.776Z,22.27
2023-02-23T04:38:15.287Z,20.93
2023-02-23T04:40:41.689Z,21.30
2023-02-23T04:43:10.716Z,21.80
2023-02-23T04:45:37.144Z,21.70
2023-02-23T04:48:03.856Z,22.47
2023-02-23T04:50:32.513Z,22.63
2023-02-23T04:52:59.229Z,21.77
2023-02-23T04:55:26.345Z,22.40
2023-02-23T04:57:57.515Z,22.17
2023-02-23T05:00:24.197Z,22.43
2023-02-23T05:02:51.280Z,23.43
2023-02-23T05:05:17.864Z,24.07
2023-02-23T05:07:44.463Z,24.10
2023-02-23T05:10:12.147Z,24.07
2023-02-23T05:12:38.618Z,23.40
2023-02-23T05:15:06.090Z,23.50
2023-02-23T05:17:32.674Z,24.43
2023-02-23T05:19:59.087Z,23.03
2023-02-23T05:22:25.550Z,24.17
2023-02-23T05:24:52.387Z,24.73
2023-02-23T05:27:19.093Z,23.73
2023-02-23T05:29:45.657Z,24.93
2023-02-23T05:32:12.340Z,24.67
2023-02-23T05:34:39.207Z,28.40
2023-02-23T05:37:06.173Z,26.40
2023-02-23T05:39:32.671Z,26.23
2023-02-23T05:41:59.206Z,25.57
2023-02-23T05:44:25.748Z,27.33
2023-02-23T05:46:52.894Z,26.03
2023-02-23T05:49:19.360Z,26.07
2023-02-23T05:51:46.505Z,27.17
2023-02-23T05:54:14.019Z,26.87
2023-02-23T05:56:42.037Z,27.50
2023-02-23T05:59:08.556Z,27.23
2023-02-23T06:01:35.172Z,27.53
2023-02-23T06:04:02.418Z,27.87
2023-02-23T06:06:29.976Z,26.63
2023-02-23T06:08:56.691Z,26.97
2023-02-23T06:11:23.534Z,26.73
2023-02-23T06:13:50.058Z,26.93
2023-02-23T06:16:16.826Z,28.13
2023-02-23T06:18:43.402Z,26.50
2023-02-23T06:21:10.179Z,27.03
2023-02-23T06:23:38.051Z,26.90
2023-02-23T06:26:04.892Z,26.93
2023-02-23T06:28:31.379Z,27.43
2023-02-23T06:30:58.084Z,27.60
2023-02-23T06:33:25.520Z,27.73
2023-02-23T06:35:52.783Z,26.60
2023-02-23T06:38:20.472Z,29.20
2023-02-23T06:40:47.658Z,27.70
2023-02-23T06:43:14.138Z,26.23
2023-02-23T06:45:40.912Z,27.57
2023-02-23T06:48:07.824Z,29.47
2023-02-23T06:50:34.296Z,30.33
2023-02-23T06:53:00.829Z,28.67
2023-02-23T06:55:27.340Z,28.80
2023-02-23T06:57:54.354Z,26.97
2023-02-23T07:00:21.526Z,26.10
2023-02-23T07:02:48.467Z,25.80
2023-02-23T07:05:14.933Z,25.17
2023-02-23T07:07:41.470Z,24.13
2023-02-23T07:10:08.479Z,25.23
2023-02-23T07:12:34.932Z,26.13
2023-02-23T07:15:01.366Z,25.30
2023-02-23T07:17:27.917Z,25.63
2023-02-23T07:19:54.756Z,25.77
2023-02-23T07:22:22.240Z,25.63
2023-02-23T07:24:48.759Z,25.43
2023-02-23T07:27:15.449Z,25.27
2023-02-23T07:29:41.933Z,27.07
2023-02-23T07:32:08.563Z,26.57
2023-02-23T07:34:35.085Z,28.30
2023-02-23T07:37:01.496Z,25.80
2023-02-23T07:39:28.335Z,26.57
2023-02-23T07:41:54.826Z,26.60
2023-02-23T07:44:21.367Z,25.90
2023-02-23T07:46:48.425Z,25.67
2023-02-23T07:49:14.954Z,26.47
2023-02-23T07:51:41.607Z,24.97
2023-02-23T07:54:08.211Z,26.67
2023-02-23T07:56:35.437Z,27.83
2023-02-23T07:59:02.601Z,28.97
2023-02-23T08:01:29.478Z,26.73
2023-02-23T08:03:55.986Z,26.70
2023-02-23T08:06:22.622Z,26.30
2023-02-23T08:08:49.140Z,26.73
2023-02-23T08:11:15.777Z,27.53
2023-02-23T08:13:42.383Z,26.40
2023-02-23T08:16:08.828Z,25.87
2023-02-23T08:18:35.683Z,28.17
2023-02-23T08:21:03.405Z,26.37
2023-02-23T08:23:34.803Z,26.07
2023-02-23T08:26:01.945Z,29.17
2023-02-23T08:28:29.138Z,38.40
2023-02-23T08:30:55.789Z,37.73
2023-02-23T08:33:22.479Z,28.37
2023-02-23T08:35:48.948Z,26.70
2023-02-23T08:38:16.454Z,34.80
2023-02-23T08:40:43.485Z,31.93
2023-02-23T08:43:10.183Z,30.47
2023-02-23T08:45:38.661Z,34.10
2023-02-23T08:48:06.546Z,26.40
2023-02-23T08:50:33.105Z,30.23
2023-02-23T08:52:59.534Z,31.73
2023-02-23T08:55:26.697Z,33.57
2023-02-23T08:57:53.303Z,25.10
2023-02-23T09:00:20.410Z,23.87
2023-02-23T09:02:49.807Z,23.37
2023-02-23T09:05:17.018Z,23.13
2023-02-23T09:07:45.223Z,23.60
2023-02-23T09:10:17.465Z,23.83
2023-02-23T09:12:43.873Z,23.40
2023-02-23T09:15:10.852Z,24.17
2023-02-23T09:17:37.861Z,22.80
2023-02-23T09:20:05.752Z,22.70
2023-02-23T09:22:32.710Z,24.77
2023-02-23T09:24:59.161Z,23.77
2023-02-23T09:27:25.747Z,23.57
2023-02-23T09:29:52.245Z,22.63
2023-02-23T09:32:19.083Z,22.10
2023-02-23T09:34:45.639Z,23.07
2023-02-23T09:37:12.161Z,24.30
2023-02-23T09:39:39.267Z,22.00
2023-02-23T09:42:25.948Z,23.43
2023-02-23T09:45:08.276Z,23.10
2023-02-23T09:48:07.369Z,22.73
2023-02-23T09:50:35.930Z,23.53
2023-02-23T09:53:36.837Z,22.70
2023-02-23T09:56:08.806Z,21.33
2023-02-23T09:58:35.807Z,22.00
2023-02-23T10:01:22.221Z,20.60
2023-02-23T10:04:12.453Z,21.40
2023-02-23T10:06:42.180Z,21.27
2023-02-23T10:09:14.563Z,21.13
2023-02-23T10:11:58.341Z,20.35
2023-02-23T10:14:47.741Z,19.40
2023-02-23T10:17:36.370Z,20.17
2023-02-23T10:20:37.061Z,20.20
2023-02-23T10:23:07.973Z,19.98
2023-02-23T10:25:37.521Z,19.65
2023-02-23T10:28:04.129Z,19.33
2023-02-23T10:30:34.243Z,20.25
2023-02-23T10:33:22.589Z,20.17
2023-02-23T10:35:55.900Z,19.95
2023-02-23T10:38:27.510Z,19.15
2023-02-23T10:40:55.987Z,18.48
2023-02-23T10:43:22.793Z,18.97
2023-02-23T10:45:51.917Z,19.70
2023-02-23T10:48:21.078Z,18.27
2023-02-23T10:50:50.666Z,19.17
2023-02-23T10:53:22.635Z,18.63
2023-02-23T10:56:17.032Z,19.38
2023-02-23T10:58:55.657Z,19.17
2023-02-23T11:02:01.939Z,19.93
2023-02-23T11:04:34.853Z,19.67
2023-02-23T11:07:18.167Z,19.37
2023-02-23T11:09:47.840Z,19.20
2023-02-23T11:12:28.503Z,18.30
2023-02-23T11:14:56.728Z,19.00
2023-02-23T11:17:35.419Z,18.83
2023-02-23T11:20:36.040Z,18.27
2023-02-23T11:23:22.561Z,18.50
2023-02-23T11:25:51.633Z,19.10
2023-02-23T11:28:30.174Z,18.40
2023-02-23T11:31:21.104Z,17.83
2023-02-23T11:33:48.635Z,19.20
2023-02-23T11:36:28.061Z,18.55
2023-02-23T11:39:23.600Z,18.20
2023-02-23T11:42:12.845Z,18.33
2023-02-23T11:44:39.291Z,16.52
2023-02-23T11:47:05.932Z,17.55
2023-02-23T11:49:35.958Z,16.88
2023-02-23T11:52:02.846Z,17.52
2023-02-23T11:54:33.423Z,16.73
2023-02-23T11:57:02.632Z,16.90
2023-02-23T11:59:33.785Z,15.70
2023-02-23T12:02:28.493Z,15.25
2023-02-23T12:05:09.673Z,16.25
2023-02-23T12:07:50.285Z,15.88
2023-02-23T12:10:23.984Z,15.77
2023-02-23T12:12:54.542Z,15.45
2023-02-23T12:15:49.002Z,14.80
2023-02-23T12:18:37.551Z,14.48
2023-02-23T12:21:22.958Z,14.93
2023-02-23T12:23:52.954Z,14.88
2023-02-23T12:26:22.597Z,15.27
2023-02-23T12:29:00.490Z,13.57
2023-02-23T12:31:40.505Z,14.40
2023-02-23T12:34:36.287Z,15.57
2023-02-23T12:37:28.941Z,15.30
2023-02-23T12:40:16.132Z,15.15
2023-02-23T12:42:47.486Z,14.63
2023-02-23T12:45:21.014Z,15.40
2023-02-23T12:48:06.401Z,14.90
2023-02-23T12:50:50.246Z,14.40
2023-02-23T12:53:31.496Z,14.75
2023-02-23T12:56:33.397Z,15.10
2023-02-23T12:59:14.298Z,14.90
2023-02-23T13:01:43.911Z,14.95
2023-02-23T13:04:20.074Z,15.18
2023-02-23T13:07:03.753Z,14.73
2023-02-23T13:09:42.774Z,15.20
2023-02-23T13:12:21.323Z,15.93
2023-02-23T13:15:01.793Z,15.27
2023-02-23T13:17:43.129Z,13.30
2023-02-23T13:20:22.505Z,13.15
2023-02-23T13:22:57.308Z,12.75
2023-02-23T13:25:38.654Z,12.75
2023-02-23T13:28:06.412Z,13.20
2023-02-23T13:30:33.213Z,14.18
2023-02-23T13:33:02.811Z,14.68
2023-02-23T13:35:35.409Z,14.60
2023-02-23T13:38:32.214Z,13.55
2023-02-23T13:41:30.392Z,12.10
2023-02-23T13:44:03.825Z,11.85
2023-02-23T13:46:40.880Z,11.00
2023-02-23T13:49:24.805Z,11.77
2023-02-23T13:51:57.059Z,11.85
2023-02-23T13:54:26.341Z,11.90
2023-02-23T13:56:58.602Z,11.70
2023-02-23T13:59:37.849Z,11.75
2023-02-23T14:02:39.152Z,13.02
2023-02-23T14:05:19.819Z,12.93
2023-02-23T14:07:53.675Z,13.73
2023-02-23T14:10:27.055Z,12.80
2023-02-23T14:13:23.826Z,11.93
2023-02-23T14:16:17.633Z,12.65
2023-02-23T14:19:03.913Z,12.90
2023-02-23T14:21:52.342Z,12.77
2023-02-23T14:24:23.755Z,13.30
2023-02-23T14:27:39.816Z,14.48
2023-02-23T14:30:10.692Z,16.00
2023-02-23T14:32:48.081Z,15.70
2023-02-23T14:35:44.148Z,15.00
2023-02-23T14:38:25.120Z,16.20
2023-02-23T14:40:53.606Z,16.02
2023-02-23T14:43:35.580Z,16.55
2023-02-23T14:46:05.858Z,15.32
2023-02-23T14:48:36.537Z,16.98
2023-02-23T14:51:16.966Z,18.55
2023-02-23T14:53:44.046Z,18.20
2023-02-23T14:56:32.564Z,19.20
2023-02-23T14:59:07.053Z,21.35
2023-02-23T15:01:35.201Z,23.10
2023-02-23T15:04:23.483Z,25.80
2023-02-23T15:06:53.812Z,25.98
2023-02-23T15:09:30.529Z,25.70
2023-02-23T15:11:57.820Z,26.48
2023-02-23T15:14:28.300Z,26.87
2023-02-23T15:16:56.015Z,27.17
2023-02-23T15:19:36.498Z,27.03
2023-02-23T15:22:04.736Z,27.80
2023-02-23T15:24:40.758Z,30.67
2023-02-23T15:27:26.942Z,33.23
2023-02-23T15:29:55.352Z,36.28
2023-02-23T15:32:24.954Z,33.90
2023-02-23T15:35:04.925Z,33.40
2023-02-23T15:40:21.875Z,31.00
2023-02-23T15:42:56.179Z,31.03
2023-02-23T15:45:32.331Z,31.33
2023-02-23T15:48:03.657Z,29.90
2023-02-23T15:50:42.677Z,32.40
2023-02-23T15:53:22.163Z,33.43
2023-02-23T15:55:48.741Z,31.33
2023-02-23T15:58:27.913Z,33.17
2023-02-23T16:01:06.133Z,32.47
2023-02-23T16:03:38.635Z,31.13
2023-02-23T16:06:08.331Z,32.20
2023-02-23T16:08:36.883Z,33.70
2023-02-23T16:11:16.104Z,32.93
2023-02-23T16:13:44.129Z,33.97
2023-02-23T16:16:20.090Z,31.17
2023-02-23T16:18:52.626Z,32.80
2023-02-23T16:21:22.815Z,33.17
2023-02-23T16:23:52.515Z,36.00
2023-02-23T16:26:42.607Z,34.25
2023-02-23T16:29:14.052Z,34.30
2023-02-23T16:31:46.244Z,35.00
2023-02-23T16:34:55.322Z,34.00
2023-02-23T16:37:25.917Z,35.53
2023-02-23T16:39:52.838Z,34.30
2023-02-23T16:42:31.640Z,34.60
2023-02-23T16:44:58.555Z,47.53
2023-02-23T16:47:47.910Z,41.97
2023-02-23T16:50:20.488Z,36.80
2023-02-23T16:52:51.928Z,36.80
2023-02-23T16:55:25.528Z,36.03
2023-02-23T16:57:55.262Z,41.90
2023-02-23T17:00:30.782Z,35.33
2023-02-23T17:03:00.720Z,35.70
2023-02-23T17:05:28.941Z,36.47
2023-02-23T17:07:57.585Z,37.20
2023-02-23T17:10:35.008Z,38.08
2023-02-23T17:13:08.012Z,38.37
2023-02-23T17:15:36.527Z,39.67
2023-02-23T17:18:04.396Z,39.30
2023-02-23T17:20:32.597Z,40.03
2023-02-23T17:23:00.409Z,41.30
2023-02-23T17:25:27.145Z,40.63
2023-02-23T17:27:54.981Z,41.87
2023-02-23T17:30:22.448Z,40.33
2023-02-23T17:32:51.005Z,41.93
2023-02-23T17:35:17.767Z,41.17
2023-02-23T17:37:44.711Z,41.57
2023-02-23T17:40:15.851Z,41.80
2023-02-23T17:42:43.150Z,43.87
2023-02-23T17:45:09.949Z,42.17
2023-02-23T17:47:40.236Z,44.90
2023-02-23T17:50:07.846Z,44.67
2023-02-23T17:52:35.680Z,45.50
2023-02-23T17:55:02.431Z,46.77
2023-02-23T17:57:32.945Z,45.73
2023-02-23T17:59:59.401Z,47.50
2023-02-23T18:02:26.102Z,44.37
2023-02-23T18:04:53.118Z,46.13
2023-02-23T18:07:20.893Z,45.10
2023-02-23T18:09:50.162Z,48.30
2023-02-23T18:12:18.303Z,47.97
2023-02-23T18:14:45.677Z,48.27
2023-02-23T18:17:13.409Z,52.33
2023-02-23T18:19:39.931Z,55.17
2023-02-23T18:22:06.674Z,61.27
2023-02-23T18:24:33.661Z,58.53
2023-02-23T18:27:03.275Z,57.33
2023-02-23T18:29:32.118Z,55.43
2023-02-23T18:31:59.304Z,54.50
2023-02-23T18:34:27.494Z,54.47
2023-02-23T18:36:55.807Z,54.93
2023-02-23T18:39:22.866Z,54.23
2023-02-23T18:41:50.068Z,54.90
2023-02-23T18:44:17.868Z,55.23
2023-02-23T18:46:46.238Z,54.63
2023-02-23T18:49:15.242Z,56.53
2023-02-23T18:51:43.381Z,57.70
2023-02-23T18:54:12.902Z,66.23
2023-02-23T18:56:39.838Z,64.17
2023-02-23T18:59:06.459Z,70.30
2023-02-23T19:01:33.568Z,71.97
2023-02-23T19:04:02.036Z,77.40
2023-02-23T19:06:28.883Z,70.10
2023-02-23T19:08:57.400Z,68.93
2023-02-23T19:11:26.555Z,71.40
2023-02-23T19:13:54.912Z,73.10
2023-02-23T19:16:22.690Z,71.47
2023-02-23T19:18:49.542Z,72.47
2023-02-23T19:21:17.998Z,73.77
2023-02-23T19:23:45.102Z,71.70
2023-02-23T19:26:12.747Z,73.70
2023-02-23T19:28:39.228Z,74.83
2023-02-23T19:31:08.045Z,72.40
2023-02-23T19:33:34.934Z,70.70
2023-02-23T19:36:05.300Z,68.80
2023-02-23T19:38:31.902Z,78.03
2023-02-23T19:40:58.462Z,75.57
2023-02-23T19:43:25.055Z,76.40
2023-02-23T19:45:51.959Z,77.20
2023-02-23T19:48:18.970Z,72.20
2023-02-23T19:50:47.938Z,78.93
2023-02-23T19:53:15.728Z,81.93
2023-02-23T19:55:42.437Z,79.70
2023-02-23T19:58:09.483Z,79.07
2023-02-23T20:00:36.076Z,76.70
2023-02-23T20:03:06.334Z,72.43
2023-02-23T20:05:42.357Z,78.90
2023-02-23T20:08:10.055Z,79.80
2023-02-23T20:10:41.517Z,76.53
2023-02-23T20:13:08.185Z,79.10
2023-02-23T20:15:34.713Z,81.53
2023-02-23T20:18:01.194Z,83.43
2023-02-23T20:20:29.144Z,80.60
2023-02-23T20:22:56.006Z,81.90
2023-02-23T20:25:23.342Z,79.93
2023-02-23T20:27:52.639Z,79.00
2023-02-23T20:30:20.622Z,82.67
2023-02-23T20:32:47.742Z,76.83
2023-02-23T20:35:16.490Z,77.73
2023-02-23T20:37:43.482Z,74.70
2023-02-23T20:40:18.195Z,76.33
2023-02-23T20:42:47.782Z,72.83
2023-02-23T20:45:17.179Z,69.77
2023-02-23T20:47:45.932Z,76.07
2023-02-23T20:50:15.628Z,75.00
2023-02-23T20:52:42.505Z,71.17
2023-02-23T20:55:10.088Z,75.63
2023-02-23T20:57:37.252Z,74.07
2023-02-23T21:00:09.929Z,70.03
2023-02-23T21:02:37.301Z,67.60
2023-02-23T21:05:04.215Z,67.20
2023-02-23T21:07:30.845Z,67.77
2023-02-23T21:10:00.427Z,67.07
2023-02-23T21:12:27.547Z,67.03
2023-02-23T21:14:54.134Z,66.13
2023-02-23T21:17:20.660Z,66.57
2023-02-23T21:19:47.180Z,67.87
2023-02-23T21:22:16.299Z,68.40
2023-02-23T21:24:43.858Z,71.50
2023-02-23T21:27:12.702Z,69.63
2023-02-23T21:29:40.329Z,71.83
2023-02-23T21:32:08.880Z,74.73
2023-02-23T21:34:36.094Z,72.60
2023-02-23T21:37:02.680Z,76.97
2023-02-23T21:39:29.286Z,74.60
2023-02-23T21:41:56.186Z,80.67
2023-02-23T21:44:22.768Z,81.10
2023-02-23T21:46:51.478Z,80.80
2023-02-23T21:49:19.147Z,84.43
2023-02-23T21:51:45.767Z,81.80
2023-02-23T21:54:12.402Z,81.00
2023-02-23T21:56:39.183Z,82.87
2023-02-23T21:59:08.161Z,82.37
2023-02-23T22:01:37.416Z,86.43
2023-02-23T22:04:05.735Z,85.27
2023-02-23T22:06:41.834Z,86.70
2023-02-23T22:09:12.551Z,91.63
2023-02-23T22:11:43.735Z,89.33
2023-02-23T22:14:11.265Z,91.10
2023-02-23T22:16:39.968Z,92.03
2023-02-23T22:19:07.184Z,94.33
2023-02-23T22:21:39.435Z,93.27
2023-02-23T22:24:06.688Z,89.80
2023-02-23T22:26:35.973Z,90.93
2023-02-23T22:29:03.447Z,93.53
2023-02-23T22:31:30.435Z,90.80
2023-02-23T22:33:57.018Z,91.17
2023-02-23T22:36:23.821Z,91.53
2023-02-23T22:38:50.387Z,91.73
2023-02-23T22:41:16.970Z,87.17
2023-02-23T22:43:47.855Z,86.63
2023-02-23T22:46:15.476Z,84.93
2023-02-23T22:48:44.880Z,88.80
2023-02-23T22:51:13.224Z,85.27
2023-02-23T22:53:40.243Z,82.07
2023-02-23T22:56:07.245Z,83.93
2023-02-23T22:58:34.368Z,82.27
2023-02-23T23:01:09.670Z,81.30
2023-02-23T23:03:41.917Z,81.67
2023-02-23T23:06:10.707Z,77.23
2023-02-23T23:08:40.196Z,75.43
2023-02-23T23:11:12.904Z,73.93
2023-02-23T23:13:44.478Z,72.60
2023-02-23T23:16:16.885Z,76.60
2023-02-23T23:18:56.577Z,73.57
2023-02-23T23:21:26.276Z,71.83
2023-02-23T23:23:55.484Z,70.97
2023-02-23T23:26:23.472Z,70.70
2023-02-23T23:28:52.570Z,69.40
2023-02-23T23:31:22.786Z,70.53
2023-02-23T23:33:51.572Z,69.17
2023-02-23T23:36:22.134Z,67.93
2023-02-23T23:38:50.043Z,65.57
2023-02-23T23:41:17.772Z,64.70
2023-02-23T23:43:48.965Z,62.87
2023-02-23T23:46:22.658Z,60.33
2023-02-23T23:48:51.200Z,63.00
2023-02-23T23:51:18.226Z,66.60
2023-02-23T23:53:44.948Z,65.17
2023-02-23T23:56:11.671Z,64.80
2023-02-23T23:58:38.515Z,65.03
